Time;durP1;ratioP1;P1;durP2;ratioP2;P2;SDS_P1;SDS_P2;PMS_P1;PMS_P2;Temp;Humidity;BMP_temperature;BMP_pressure;BME280_temperature;BME280_humidity;BME280_pressure;Samples;Min_cycle;Max_cycle;Signal;HPM_P1;HPM_P2
2021/01/07 00:03:38;;;;;;;68.92;32.75;;;;;;;1.38;100.00;98339.45;4507634;78;28548;-77
2021/01/07 00:09:35;;;;;;;65.55;31.00;;;;;;;1.49;100.00;98347.41;4471417;78;28613;-77
2021/01/07 00:15:37;;;;;;;62.30;29.37;;;;;;;1.43;100.00;98351.32;4501442;78;28550;-77
2021/01/07 00:21:40;;;;;;;52.98;26.75;;;;;;;1.64;100.00;98351.81;4491710;79;28573;-80
2021/01/07 00:27:42;;;;;;;57.48;28.35;;;;;;;1.36;100.00;98356.03;4507715;79;28580;-81
2021/01/07 00:33:45;;;;;;;63.87;29.40;;;;;;;1.49;100.00;98358.00;4491345;78;28535;-81
2021/01/07 00:39:47;;;;;;;57.55;28.42;;;;;;;1.62;100.00;98366.59;4458556;79;28646;-80
2021/01/07 00:45:52;;;;;;;65.67;29.30;;;;;;;1.72;100.00;98366.27;4461838;79;28546;-80
2021/01/07 00:51:54;;;;;;;65.20;31.45;;;;;;;1.58;100.00;98366.64;4503128;78;28507;-80
2021/01/07 00:57:57;;;;;;;69.05;33.50;;;;;;;1.58;100.00;98377.76;4483079;77;28572;-80
2021/01/07 01:03:59;;;;;;;66.37;30.77;;;;;;;1.53;100.00;98377.80;4512728;79;28630;-80
2021/01/07 01:10:03;;;;;;;70.35;30.88;;;;;;;1.46;100.00;98369.48;4506500;78;28581;-79
2021/01/07 01:16:06;;;;;;;73.33;30.57;;;;;;;1.61;100.00;98372.07;4508992;78;28928;-80
2021/01/07 01:22:08;;;;;;;70.75;32.28;;;;;;;1.62;100.00;98367.09;4493155;78;28548;-77
2021/01/07 01:28:10;;;;;;;67.05;30.80;;;;;;;1.63;100.00;98374.02;4493193;78;28605;-81
2021/01/07 01:34:15;;;;;;;67.47;32.23;;;;;;;1.64;100.00;98360.59;4490096;78;28652;-79
2021/01/07 01:40:17;;;;;;;70.83;30.57;;;;;;;1.64;100.00;98360.59;4500254;78;28600;-79
2021/01/07 01:46:21;;;;;;;65.60;29.63;;;;;;;1.56;100.00;98358.06;4491507;78;28630;-79
2021/01/07 01:52:25;;;;;;;76.10;33.23;;;;;;;1.62;100.00;98359.97;4507552;78;28615;-79
2021/01/07 01:58:30;;;;;;;83.13;36.40;;;;;;;1.83;100.00;98370.24;4502621;78;28563;-78
2021/01/07 02:04:32;;;;;;;81.57;38.23;;;;;;;1.76;100.00;98362.20;4492232;79;28580;-78
2021/01/07 02:10:34;;;;;;;93.47;40.98;;;;;;;1.65;100.00;98355.61;4514377;78;28567;-79
2021/01/07 02:16:36;;;;;;;92.10;40.20;;;;;;;1.39;100.00;98350.35;4515717;77;28566;-79
2021/01/07 02:22:39;;;;;;;88.33;41.42;;;;;;;1.49;100.00;98347.90;4494271;79;28593;-79
2021/01/07 02:28:42;;;;;;;92.08;42.27;;;;;;;1.36;100.00;98337.49;4457283;79;28540;-77
2021/01/07 02:34:48;;;;;;;102.60;45.50;;;;;;;1.34;100.00;98348.79;4497760;79;28563;-79
2021/01/07 02:40:50;;;;;;;93.67;41.90;;;;;;;1.49;100.00;98352.70;4497946;78;28619;-79
2021/01/07 02:46:53;;;;;;;94.60;41.98;;;;;;;1.59;100.00;98353.70;4510066;79;28645;-80
2021/01/07 02:52:56;;;;;;;98.25;43.25;;;;;;;1.53;100.00;98355.28;4459983;79;28571;-80
2021/01/07 02:58:58;;;;;;;101.47;44.00;;;;;;;1.38;100.00;98363.28;4437086;80;28571;-80
2021/01/07 03:05:00;;;;;;;100.53;44.08;;;;;;;1.29;100.00;98359.11;4457042;79;28546;-80
2021/01/07 03:11:02;;;;;;;95.87;40.58;;;;;;;1.31;100.00;98351.82;4504110;78;28542;-80
2021/01/07 03:17:04;;;;;;;87.08;40.20;;;;;;;1.23;100.00;98354.58;4482304;79;28554;-81
2021/01/07 03:23:06;;;;;;;87.10;39.50;;;;;;;1.44;100.00;98355.61;4513060;79;28613;-80
2021/01/07 03:29:08;;;;;;;91.82;40.95;;;;;;;1.37;100.00;98356.34;4507809;79;28546;-80
2021/01/07 03:35:11;;;;;;;95.83;41.83;;;;;;;1.41;100.00;98352.83;4522470;78;28533;-80
2021/01/07 03:41:13;;;;;;;95.57;41.40;;;;;;;1.45;100.00;98354.59;4502565;78;28589;-80
2021/01/07 03:47:15;;;;;;;88.33;40.28;;;;;;;1.56;100.00;98352.77;4483642;78;28635;-77
2021/01/07 03:53:17;;;;;;;94.55;40.95;;;;;;;1.50;100.00;98363.62;4503434;79;28554;-77
2021/01/07 03:59:19;;;;;;;95.62;43.55;;;;;;;1.65;100.00;98362.72;4523681;78;28550;-78
2021/01/07 04:05:21;;;;;;;91.72;42.50;;;;;;;1.62;100.00;98360.46;4526305;78;28601;-79
2021/01/07 04:11:23;;;;;;;91.87;40.95;;;;;;;1.61;100.00;98358.30;4493623;78;28560;-79
2021/01/07 04:17:25;;;;;;;87.30;39.70;;;;;;;1.46;100.00;98354.42;4514989;78;28536;-79
2021/01/07 04:23:27;;;;;;;86.57;39.42;;;;;;;1.47;100.00;98357.87;4514677;79;28556;-79
2021/01/07 04:29:29;;;;;;;86.37;39.83;;;;;;;1.44;100.00;98357.73;4477603;79;28571;-78
2021/01/07 04:35:32;;;;;;;83.78;39.50;;;;;;;1.47;100.00;98357.87;4478697;79;28534;-79
2021/01/07 04:41:35;;;;;;;91.90;42.23;;;;;;;1.27;100.00;98364.30;4497763;79;28551;-78
2021/01/07 04:47:38;;;;;;;93.85;39.13;;;;;;;1.18;100.00;98363.58;4507228;79;28617;-79
2021/01/07 04:53:42;;;;;;;87.88;40.45;;;;;;;1.21;100.00;98371.17;4489371;78;28539;-79
2021/01/07 04:59:44;;;;;;;82.30;37.83;;;;;;;1.30;100.00;98369.22;4515324;77;28568;-79
2021/01/07 05:05:50;;;;;;;80.95;37.20;;;;;;;1.33;100.00;98368.83;4503893;78;28562;-78
2021/01/07 05:11:52;;;;;;;77.92;36.28;;;;;;;1.32;100.00;98361.41;4503543;79;28542;-79
2021/01/07 05:18:02;;;;;;;85.40;37.63;;;;;;;1.38;100.00;98360.63;4510655;79;28546;-79
2021/01/07 05:24:05;;;;;;;88.40;40.00;;;;;;;1.49;100.00;98360.66;4473603;79;28599;-79
2021/01/07 05:30:11;;;;;;;88.92;39.35;;;;;;;1.33;100.00;98355.59;4502501;77;28661;-78
2021/01/07 05:36:29;;;;;;;81.95;37.50;;;;;;;1.47;100.00;98357.38;4455072;78;28572;-79
2021/01/07 05:42:45;;;;;;;80.83;36.98;;;;;;;1.37;100.00;98359.00;4464692;79;28554;-79
2021/01/07 05:48:49;;;;;;;76.77;35.75;;;;;;;1.46;100.00;98363.69;4513349;79;28593;-79
2021/01/07 05:54:53;;;;;;;76.82;34.53;;;;;;;1.48;100.00;98368.29;4487617;79;28542;-79
2021/01/07 06:00:56;;;;;;;79.42;36.85;;;;;;;1.37;100.00;98366.95;4486718;79;28546;-79
2021/01/07 06:06:59;;;;;;;74.72;35.75;;;;;;;1.46;100.00;98377.42;4509608;78;28578;-80
2021/01/07 06:13:01;;;;;;;74.22;34.23;;;;;;;1.51;100.00;98374.53;4506871;78;28614;-79
2021/01/07 06:19:34;;;;;;;88.62;39.38;;;;;;;1.67;100.00;98375.30;4512508;78;28550;-80
2021/01/07 06:25:36;;;;;;;81.28;36.53;;;;;;;1.71;100.00;98379.20;4499721;78;28621;-78
2021/01/07 06:31:42;;;;;;;75.15;34.13;;;;;;;1.80;100.00;98386.02;4468902;79;28595;-77
2021/01/07 06:37:51;;;;;;;82.30;36.42;;;;;;;1.81;100.00;98394.77;4500759;78;28617;-74
2021/01/07 06:43:53;;;;;;;79.20;35.80;;;;;;;1.79;100.00;98395.47;4494910;78;28597;-77
2021/01/07 06:49:56;;;;;;;71.17;32.67;;;;;;;1.82;100.00;98397.73;4516048;77;28566;-77
2021/01/07 06:56:16;;;;;;;72.12;32.48;;;;;;;1.84;100.00;98404.18;4488515;78;28641;-78
2021/01/07 07:02:19;;;;;;;69.42;30.05;;;;;;;1.87;100.00;98413.07;4510188;78;28629;-78
2021/01/07 07:08:36;;;;;;;58.73;27.37;;;;;;;1.90;100.00;98432.08;4512711;79;28622;-77
2021/01/07 07:14:38;;;;;;;53.13;24.82;;;;;;;1.87;100.00;98436.44;4503173;78;28635;-79
2021/01/07 07:20:47;;;;;;;52.67;24.52;;;;;;;1.85;100.00;98445.58;4480856;78;28604;-80
2021/01/07 07:26:49;;;;;;;46.92;23.27;;;;;;;1.80;100.00;98451.45;4492354;77;28596;-79
2021/01/07 07:32:51;;;;;;;44.13;21.37;;;;;;;1.82;100.00;98453.41;4467397;79;28579;-79
2021/01/07 07:38:55;;;;;;;42.30;19.87;;;;;;;1.81;100.00;98465.85;4475098;78;28581;-79
2021/01/07 07:44:58;;;;;;;40.35;19.37;;;;;;;1.84;100.00;98465.98;4498553;78;28640;-80
2021/01/07 07:51:13;;;;;;;37.98;17.48;;;;;;;1.93;100.00;98477.28;4481235;78;28584;-80
2021/01/07 07:57:15;;;;;;;31.48;15.88;;;;;;;1.99;100.00;98487.63;4513002;78;28587;-80
2021/01/07 08:03:31;;;;;;;31.52;15.88;;;;;;;2.03;100.00;98487.56;4491268;77;28590;-78
2021/01/07 08:09:33;;;;;;;;;;;;;;;2.11;100.00;98493.27;4512401;78;29045;-80
2021/01/07 08:15:35;;;;;;;24.67;11.80;;;;;;;2.11;100.00;98503.35;4480197;78;20317;-79
2021/01/07 08:21:45;;;;;;;23.77;12.30;;;;;;;2.11;100.00;98511.83;4500772;78;28686;-81
2021/01/07 08:27:47;;;;;;;20.75;10.90;;;;;;;2.08;100.00;98512.53;4475645;77;28558;-79
2021/01/07 08:33:52;;;;;;;21.65;11.15;;;;;;;2.02;100.00;98523.88;4488723;78;28609;-79
2021/01/07 08:39:54;;;;;;;23.75;11.83;;;;;;;2.01;100.00;98523.56;4507212;78;28541;-79
2021/01/07 08:45:57;;;;;;;23.45;10.18;;;;;;;2.05;100.00;98531.45;4492797;79;28543;-80
2021/01/07 08:52:00;;;;;;;21.87;10.28;;;;;;;1.98;100.00;98536.38;4476305;78;28633;-76
2021/01/07 08:58:03;;;;;;;21.85;10.43;;;;;;;1.93;100.00;98539.59;4473444;78;28622;-77
2021/01/07 09:04:33;;;;;;;21.12;9.98;;;;;;;2.11;100.00;98547.11;4475790;79;28604;-78
2021/01/07 09:10:36;;;;;;;21.23;10.72;;;;;;;2.04;100.00;98548.89;4485011;78;28593;-78
2021/01/07 09:16:38;;;;;;;23.00;11.20;;;;;;;2.15;100.00;98551.05;4475410;78;28645;-77
2021/01/07 09:22:43;;;;;;;20.52;8.90;;;;;;;2.35;100.00;98547.77;4468720;78;28551;-79
2021/01/07 09:28:46;;;;;;;19.90;9.45;;;;;;;2.41;100.00;98558.13;4504831;78;28574;-78
2021/01/07 09:34:49;;;;;;;15.38;7.97;;;;;;;2.40;100.00;98563.13;4493512;79;28594;-79
2021/01/07 09:40:51;;;;;;;15.65;7.60;;;;;;;2.40;100.00;98559.14;4474280;79;28554;-80
2021/01/07 09:46:56;;;;;;;16.27;7.30;;;;;;;2.42;100.00;98556.59;4497813;79;28546;-79
2021/01/07 09:52:58;;;;;;;15.15;7.03;;;;;;;2.42;100.00;98565.88;4499226;78;28546;-80
2021/01/07 09:59:00;;;;;;;16.45;7.22;;;;;;;2.36;100.00;98562.16;4513460;78;28546;-81
2021/01/07 10:05:03;;;;;;;14.23;7.22;;;;;;;2.30;100.00;98565.59;4374414;80;28575;-81
2021/01/07 10:11:08;;;;;;;20.85;10.00;;;;;;;2.30;100.00;98569.56;4389776;80;28561;-82
2021/01/07 10:17:09;;;;;;;23.35;10.58;;;;;;;2.20;100.00;98567.73;4419607;80;28572;-81
2021/01/07 10:23:15;;;;;;;25.15;12.88;;;;;;;2.39;100.00;98561.45;4412973;80;28590;-79
2021/01/07 10:29:17;;;;;;;27.97;13.30;;;;;;;2.38;100.00;98567.28;4406398;80;28604;-80
2021/01/07 10:35:24;;;;;;;25.90;12.65;;;;;;;2.17;100.00;98567.59;4352108;81;28657;-81
2021/01/07 10:41:30;;;;;;;25.12;12.00;;;;;;;2.04;100.00;98566.13;4378389;81;28552;-78
2021/01/07 10:47:37;;;;;;;27.60;13.65;;;;;;;2.06;100.00;98568.89;4377010;81;28633;-78
2021/01/07 10:54:00;;;;;;;31.15;14.95;;;;;;;2.12;100.00;98573.95;4360516;81;28586;-78
2021/01/07 11:00:15;;;;;;;26.70;12.65;;;;;;;2.32;100.00;98566.70;4376972;81;28638;-83
2021/01/07 11:06:25;;;;;;;26.33;13.40;;;;;;;2.44;100.00;98565.18;4376606;80;28594;-82
2021/01/07 11:12:43;;;;;;;19.20;9.25;;;;;;;2.76;100.00;98563.03;4376451;81;28629;-82
2021/01/07 11:18:49;;;;;;;25.32;12.20;;;;;;;2.60;100.00;98569.44;4362489;80;28639;-80
2021/01/07 11:24:55;;;;;;;17.70;9.08;;;;;;;2.51;100.00;98562.61;4290616;81;28551;-80
2021/01/07 11:30:57;;;;;;;19.62;9.88;;;;;;;2.81;100.00;98557.12;4370153;81;28626;-82
2021/01/07 11:37:25;;;;;;;17.70;9.83;;;;;;;2.80;100.00;98552.83;4351663;80;28617;-78
2021/01/07 11:43:58;;;;;;;22.50;11.60;;;;;;;2.88;100.00;98554.54;4362779;81;28563;-79
2021/01/07 11:50:08;;;;;;;16.55;8.88;;;;;;;2.91;100.00;98558.13;4369044;81;28597;-77
2021/01/07 11:56:12;;;;;;;18.55;9.40;;;;;;;2.65;100.00;98576.30;4322338;81;28631;-80
2021/01/07 12:02:17;;;;;;;17.23;8.93;;;;;;;2.62;100.00;98561.27;4336664;81;28558;-80
2021/01/07 12:08:31;;;;;;;16.02;7.60;;;;;;;2.66;100.00;98562.54;4361430;80;28590;-79
2021/01/07 12:14:50;;;;;;;16.40;8.38;;;;;;;2.70;100.00;98567.77;4375660;80;28637;-79
2021/01/07 12:20:55;;;;;;;14.75;7.62;;;;;;;2.51;100.00;98571.91;4383386;80;28660;-79
2021/01/07 12:26:58;;;;;;;15.00;7.85;;;;;;;2.26;100.00;98574.11;4360992;80;28608;-81
2021/01/07 12:33:21;;;;;;;11.88;7.00;;;;;;;2.52;100.00;98580.17;4308153;81;28564;-79
2021/01/07 12:39:58;;;;;;;16.40;8.08;;;;;;;2.50;100.00;98578.22;4388094;80;29040;-78
2021/01/07 12:46:03;;;;;;;19.70;10.15;;;;;;;2.43;100.00;98586.62;4344725;80;28597;-79
2021/01/07 12:52:07;;;;;;;21.62;10.35;;;;;;;2.41;100.00;98582.02;4373203;80;28598;-79
2021/01/07 12:58:19;;;;;;;21.15;11.68;;;;;;;2.23;100.00;98581.93;4378627;80;28575;-76
2021/01/07 13:04:39;;;;;;;22.85;11.63;;;;;;;2.25;100.00;98592.36;4390457;80;28638;-78
2021/01/07 13:10:44;;;;;;;20.82;11.70;;;;;;;2.27;100.00;98590.34;4413603;80;28578;-78
2021/01/07 13:16:49;;;;;;;20.25;11.35;;;;;;;2.35;100.00;98588.89;4393968;79;28573;-77
2021/01/07 13:22:55;;;;;;;25.30;12.65;;;;;;;2.09;100.00;98592.41;4388353;80;28644;-81
2021/01/07 13:29:02;;;;;;;23.12;12.40;;;;;;;2.07;100.00;98598.37;4314770;81;28596;-78
2021/01/07 13:35:08;;;;;;;22.07;11.45;;;;;;;2.13;100.00;98598.13;4382203;80;28537;-76
2021/01/07 13:41:22;;;;;;;21.15;10.58;;;;;;;1.88;100.00;98610.92;4318311;81;28560;-77
2021/01/07 13:47:30;;;;;;;26.45;13.08;;;;;;;2.09;100.00;98608.81;4365154;80;28581;-76
2021/01/07 13:53:37;;;;;;;24.02;11.95;;;;;;;1.95;100.00;98616.61;4379695;80;28592;-77
2021/01/07 13:59:55;;;;;;;21.97;10.25;;;;;;;1.93;100.00;98631.06;4378759;80;28598;-77
2021/01/07 14:06:06;;;;;;;25.37;12.75;;;;;;;1.79;100.00;98633.55;4377077;81;28536;-79
2021/01/07 14:12:17;;;;;;;22.00;10.30;;;;;;;1.85;100.00;98632.48;4343400;80;28542;-78
2021/01/07 14:18:22;;;;;;;22.35;11.88;;;;;;;1.81;100.00;98637.32;4352220;80;28547;-77
2021/01/07 14:24:25;;;;;;;21.20;11.15;;;;;;;1.72;100.00;98648.53;4360313;81;44415;-76
2021/01/07 14:30:30;;;;;;;20.00;11.93;;;;;;;1.80;100.00;98647.61;4348954;81;28579;-76
2021/01/07 14:36:41;;;;;;;23.55;11.68;;;;;;;1.84;100.00;98652.87;4367260;81;28544;-80
2021/01/07 14:42:45;;;;;;;20.57;10.43;;;;;;;1.78;100.00;98658.91;4362282;81;28619;-79
2021/01/07 14:48:56;;;;;;;23.07;11.53;;;;;;;1.65;100.00;98660.37;4354909;81;28606;-78
2021/01/07 14:55:04;;;;;;;22.55;11.48;;;;;;;1.74;100.00;98662.42;4358313;80;28540;-79
2021/01/07 15:01:15;;;;;;;23.90;12.58;;;;;;;1.72;100.00;98660.95;4355900;80;28586;-78
2021/01/07 15:07:32;;;;;;;23.55;11.25;;;;;;;1.57;100.00;98665.75;4370414;81;28601;-78
2021/01/07 15:13:42;;;;;;;24.15;12.30;;;;;;;1.43;100.00;98670.55;4379325;80;28545;-78
2021/01/07 15:19:54;;;;;;;26.65;13.28;;;;;;;1.41;100.00;98673.37;4382844;80;28620;-79
2021/01/07 15:26:05;;;;;;;25.32;13.22;;;;;;;1.43;100.00;98674.52;4387705;80;28556;-78
2021/01/07 15:32:35;;;;;;;26.33;13.48;;;;;;;1.30;100.00;98669.34;4344294;80;28690;-81
2021/01/07 15:39:25;;;;;;;23.87;12.58;;;;;;;1.41;100.00;98681.31;4373615;80;28627;-79
2021/01/07 15:45:58;;;;;;;24.45;11.83;;;;;;;1.36;100.00;98677.08;4291509;81;28573;-79
2021/01/07 15:52:45;;;;;;;26.25;12.95;;;;;;;1.30;100.00;98683.91;4258488;81;28604;-79
2021/01/07 15:59:05;;;;;;;23.27;11.53;;;;;;;1.24;100.00;98678.00;4313407;82;28564;-79
2021/01/07 16:05:09;;;;;;;23.25;12.33;;;;;;;1.18;100.00;98686.16;4377279;80;28723;-83
2021/01/07 16:11:16;;;;;;;22.50;11.70;;;;;;;1.06;100.00;98691.56;4381163;80;28539;-83
2021/01/07 16:17:21;;;;;;;24.70;12.58;;;;;;;1.00;100.00;98687.80;4385085;80;28918;-81
2021/01/07 16:23:32;;;;;;;28.90;13.05;;;;;;;1.00;100.00;98698.88;4387127;80;28548;-82
2021/01/07 16:29:40;;;;;;;27.42;12.98;;;;;;;1.01;100.00;98692.58;4363972;80;28612;-83
2021/01/07 16:35:44;;;;;;;22.30;11.53;;;;;;;1.14;100.00;98689.34;4389598;79;28569;-83
2021/01/07 16:41:48;;;;;;;26.40;12.88;;;;;;;1.19;100.00;98692.27;4381515;80;28564;-82
2021/01/07 16:47:50;;;;;;;24.95;12.10;;;;;;;1.16;100.00;98696.59;4378599;79;28553;-82
2021/01/07 16:53:55;;;;;;;23.22;11.95;;;;;;;1.28;100.00;98692.52;4418629;78;28553;-82
2021/01/07 16:59:58;;;;;;;23.32;11.08;;;;;;;1.19;100.00;98691.77;4384172;81;28608;-77
2021/01/07 17:06:07;;;;;;;26.73;11.93;;;;;;;1.30;100.00;98684.41;4376953;79;28559;-76
2021/01/07 17:12:14;;;;;;;22.60;11.08;;;;;;;1.26;100.00;98687.91;4422104;78;28549;-76
2021/01/07 17:18:16;;;;;;;23.70;10.72;;;;;;;1.38;100.00;98683.81;4362109;80;28661;-76
2021/01/07 17:24:26;;;;;;;18.03;8.27;;;;;;;1.39;100.00;98680.16;4353092;80;35350;-76
2021/01/07 17:30:44;;;;;;;19.62;9.20;;;;;;;1.36;100.00;98690.31;4373377;80;28587;-75
2021/01/07 17:36:47;;;;;;;20.25;9.58;;;;;;;1.29;100.00;98690.19;4376802;80;28588;-75
2021/01/07 17:42:50;;;;;;;19.45;9.08;;;;;;;1.36;100.00;98692.45;4372443;80;28591;-77
2021/01/07 17:48:54;;;;;;;22.27;10.15;;;;;;;1.45;100.00;98694.51;4378708;80;28555;-78
2021/01/07 17:54:56;;;;;;;19.42;9.75;;;;;;;1.42;100.00;98699.37;4382635;80;28566;-76
2021/01/07 18:01:01;;;;;;;21.30;10.50;;;;;;;1.31;100.00;98701.94;4361825;80;28575;-76
2021/01/07 18:07:09;;;;;;;18.62;8.38;;;;;;;1.41;100.00;98700.34;4357984;80;28559;-75
2021/01/07 18:13:12;;;;;;;19.65;9.33;;;;;;;1.39;100.00;98704.00;4369917;80;28655;-75
2021/01/07 18:19:25;;;;;;;21.17;8.85;;;;;;;1.31;100.00;98710.72;4364902;80;28548;-80
2021/01/07 18:25:35;;;;;;;19.82;9.40;;;;;;;1.37;100.00;98712.64;4384495;80;28588;-80
2021/01/07 18:31:43;;;;;;;19.75;9.30;;;;;;;1.38;100.00;98711.63;4382181;80;28574;-80
2021/01/07 18:37:47;;;;;;;19.75;9.08;;;;;;;1.36;100.00;98707.53;4371129;80;28579;-80
2021/01/07 18:43:52;;;;;;;22.22;10.35;;;;;;;1.21;100.00;98723.39;4380490;80;28635;-79
2021/01/07 18:49:57;;;;;;;20.95;10.58;;;;;;;1.29;100.00;98720.65;4388116;80;28529;-81
2021/01/07 18:56:00;;;;;;;23.73;12.05;;;;;;;1.14;100.00;98717.95;4409152;79;28573;-81
2021/01/07 19:02:12;;;;;;;26.33;12.40;;;;;;;1.22;100.00;98721.87;4370943;80;28591;-81
2021/01/07 19:08:17;;;;;;;25.00;12.63;;;;;;;1.15;100.00;98720.12;4324520;80;28552;-78
2021/01/07 19:14:35;;;;;;;28.32;13.72;;;;;;;1.37;100.00;98720.58;4617076;76;86374;-79
2021/01/07 19:20:40;;;;;;;29.82;14.35;;;;;;;1.20;100.00;98729.69;4514953;78;28546;-81
2021/01/07 19:26:55;;;;;;;28.30;14.10;;;;;;;1.28;100.00;98739.39;4485238;78;28534;-80
2021/01/07 19:33:01;;;;;;;34.10;16.52;;;;;;;1.15;100.00;98752.73;4443434;78;28571;-79
2021/01/07 19:39:06;;;;;;;40.73;19.65;;;;;;;1.32;100.00;98748.12;4514393;78;28546;-75
2021/01/07 19:45:10;;;;;;;46.48;21.12;;;;;;;1.33;100.00;98748.45;4499127;78;28604;-76
2021/01/07 19:51:21;;;;;;;41.23;19.02;;;;;;;1.34;100.00;98748.77;4514131;78;28545;-76
2021/01/07 19:57:30;;;;;;;37.42;17.27;;;;;;;1.35;100.00;98758.84;4487323;78;28607;-77
2021/01/07 20:03:34;;;;;;;37.85;17.77;;;;;;;1.32;100.00;98757.88;4470805;78;28593;-77
2021/01/07 20:09:39;;;;;;;40.60;17.35;;;;;;;1.33;100.00;98757.72;4505800;77;28585;-76
2021/01/07 20:15:44;;;;;;;44.18;18.55;;;;;;;1.28;100.00;98760.58;4487144;78;28569;-78
2021/01/07 20:21:47;;;;;;;44.53;20.55;;;;;;;1.18;100.00;98764.28;4493901;78;28546;-76
2021/01/07 20:27:53;;;;;;;44.83;20.70;;;;;;;1.21;100.00;98762.59;4503344;78;28604;-77
2021/01/07 20:33:57;;;;;;;43.52;19.98;;;;;;;1.26;100.00;98768.69;4472765;78;28604;-75
2021/01/07 20:40:01;;;;;;;44.55;20.32;;;;;;;1.28;100.00;98769.33;4458204;78;28534;-75
2021/01/07 20:46:07;;;;;;;45.35;20.20;;;;;;;1.21;100.00;98765.77;4486485;78;28539;-77
2021/01/07 20:52:12;;;;;;;42.60;19.25;;;;;;;1.21;100.00;98769.22;4480867;78;28613;-76
2021/01/07 20:58:16;;;;;;;34.73;16.45;;;;;;;1.23;100.00;98766.41;4466309;78;28549;-75
2021/01/07 21:04:23;;;;;;;30.12;13.53;;;;;;;1.17;100.00;98767.94;4458255;78;28620;-75
2021/01/07 21:10:28;;;;;;;30.68;13.08;;;;;;;1.21;100.00;98769.73;4483364;78;28544;-74
2021/01/07 21:16:33;;;;;;;28.57;12.58;;;;;;;1.17;100.00;98777.69;4472275;78;28550;-74
2021/01/07 21:22:52;;;;;;;22.00;9.53;;;;;;;1.22;100.00;98775.35;4509677;78;28568;-74
2021/01/07 21:29:01;;;;;;;19.57;8.95;;;;;;;1.20;100.00;98778.69;4461944;78;28571;-77
2021/01/07 21:41:37;;;;;;;17.62;8.08;;;;;;;1.23;100.00;98774.34;4589856;76;86079;-76
2021/01/07 21:47:43;;;;;;;18.25;8.83;;;;;;;1.08;100.00;98776.42;4461014;78;28586;-76
2021/01/07 21:53:50;;;;;;;16.97;7.72;;;;;;;1.15;100.00;98777.89;4482101;78;28621;-75
2021/01/07 21:59:53;;;;;;;17.95;8.18;;;;;;;1.15;100.00;98775.72;4499292;77;28562;-75
2021/01/07 22:06:00;;;;;;;18.45;8.00;;;;;;;1.18;100.00;98784.63;4492421;78;28545;-75
2021/01/07 22:12:08;;;;;;;20.52;9.13;;;;;;;1.15;100.00;98777.89;4502119;78;28538;-76
2021/01/07 22:18:18;;;;;;;17.45;8.28;;;;;;;1.16;100.00;98780.02;4507284;78;28562;-74
2021/01/07 22:24:29;;;;;;;19.12;8.23;;;;;;;1.16;100.00;98776.05;4457647;78;43904;-76
2021/01/07 22:30:35;;;;;;;16.82;8.08;;;;;;;1.19;100.00;98782.30;4470990;78;28589;-76
2021/01/07 22:36:42;;;;;;;18.40;8.58;;;;;;;1.16;100.00;98777.38;4492851;78;28555;-75
2021/01/07 22:42:47;;;;;;;18.15;8.05;;;;;;;1.20;100.00;98783.98;4485261;78;28620;-76
2021/01/07 22:48:51;;;;;;;19.85;7.67;;;;;;;1.05;100.00;98785.23;4441164;78;28549;-75
2021/01/07 22:54:55;;;;;;;17.15;8.03;;;;;;;1.13;100.00;98788.33;4472086;78;28598;-75
2021/01/07 23:00:57;;;;;;;19.50;8.55;;;;;;;1.12;100.00;98784.84;4487985;78;43906;-76
2021/01/07 23:07:02;;;;;;;18.95;8.03;;;;;;;1.17;100.00;98794.42;4463614;79;43998;-76
2021/01/07 23:13:09;;;;;;;19.57;8.88;;;;;;;1.21;100.00;98785.11;4495519;78;28581;-75
2021/01/07 23:19:13;;;;;;;18.42;8.75;;;;;;;1.15;100.00;98786.32;4439355;79;43908;-77
2021/01/07 23:25:15;;;;;;;17.62;8.13;;;;;;;1.11;100.00;98785.36;4504987;78;43908;-77
2021/01/07 23:31:18;;;;;;;20.85;9.25;;;;;;;1.04;100.00;98784.89;4500224;78;28668;-77
2021/01/07 23:37:20;;;;;;;19.07;8.25;;;;;;;0.95;100.00;98788.93;4500407;78;28939;-77
2021/01/07 23:43:22;;;;;;;20.55;9.20;;;;;;;1.04;100.00;98795.48;4509353;78;28570;-74
2021/01/07 23:49:25;;;;;;;18.07;8.43;;;;;;;1.01;100.00;98801.97;4505216;78;43956;-75
2021/01/07 23:55:27;;;;;;;19.98;8.78;;;;;;;0.95;100.00;98792.06;4500536;78;28569;-75
